sensor_id;sensor_type;location;lat;lon;timestamp;pressure;altitude;pressure_sealevel;temperature;humidity
22743;BME280;11538;48.884;8.696;2022-08-21T00:01:51;98866.78;;;17.95;66.49
22743;BME280;11538;48.884;8.696;2022-08-21T00:04:19;98861.97;;;17.79;66.90
22743;BME280;11538;48.884;8.696;2022-08-21T00:06:52;98870.94;;;17.64;67.22
22743;BME280;11538;48.884;8.696;2022-08-21T00:09:19;98858.72;;;17.61;67.90
22743;BME280;11538;48.884;8.696;2022-08-21T00:11:47;98857.34;;;17.55;68.26
22743;BME280;11538;48.884;8.696;2022-08-21T00:14:15;98855.53;;;17.59;68.21
22743;BME280;11538;48.884;8.696;2022-08-21T00:16:42;98859.53;;;17.49;68.76
22743;BME280;11538;48.884;8.696;2022-08-21T00:19:10;98862.94;;;17.59;68.38
22743;BME280;11538;48.884;8.696;2022-08-21T00:21:37;98851.50;;;17.57;68.57
22743;BME280;11538;48.884;8.696;2022-08-21T00:24:05;98861.56;;;17.65;68.06
22743;BME280;11538;48.884;8.696;2022-08-21T00:26:33;98856.09;;;17.52;68.04
22743;BME280;11538;48.884;8.696;2022-08-21T00:29:03;98846.63;;;17.50;68.10
22743;BME280;11538;48.884;8.696;2022-08-21T00:31:30;98844.81;;;17.42;68.67
22743;BME280;11538;48.884;8.696;2022-08-21T00:33:58;98850.38;;;17.45;68.38
22743;BME280;11538;48.884;8.696;2022-08-21T00:36:27;98846.03;;;17.44;68.75
22743;BME280;11538;48.884;8.696;2022-08-21T00:38:55;98850.84;;;17.35;68.94
22743;BME280;11538;48.884;8.696;2022-08-21T00:41:22;98851.53;;;17.19;69.64
22743;BME280;11538;48.884;8.696;2022-08-21T00:44:07;98842.63;;;17.10;70.02
22743;BME280;11538;48.884;8.696;2022-08-21T00:46:36;98843.31;;;17.07;70.42
22743;BME280;11538;48.884;8.696;2022-08-21T00:49:05;98840.44;;;17.16;69.96
22743;BME280;11538;48.884;8.696;2022-08-21T00:51:55;98846.41;;;17.30;69.63
22743;BME280;11538;48.884;8.696;2022-08-21T00:54:27;98838.53;;;17.29;69.24
22743;BME280;11538;48.884;8.696;2022-08-21T00:57:00;98846.28;;;17.14;70.12
22743;BME280;11538;48.884;8.696;2022-08-21T00:59:36;98846.16;;;17.10;70.30
22743;BME280;11538;48.884;8.696;2022-08-21T01:02:06;98834.75;;;17.08;70.43
22743;BME280;11538;48.884;8.696;2022-08-21T01:04:35;98842.72;;;17.01;70.92
22743;BME280;11538;48.884;8.696;2022-08-21T01:07:02;98838.94;;;16.93;71.83
22743;BME280;11538;48.884;8.696;2022-08-21T01:09:30;98843.41;;;16.98;72.00
22743;BME280;11538;48.884;8.696;2022-08-21T01:11:57;98838.78;;;16.77;73.14
22743;BME280;11538;48.884;8.696;2022-08-21T01:14:24;98840.28;;;16.62;73.77
22743;BME280;11538;48.884;8.696;2022-08-21T01:16:52;98842.78;;;16.67;74.11
22743;BME280;11538;48.884;8.696;2022-08-21T01:19:21;98835.28;;;16.77;73.85
22743;BME280;11538;48.884;8.696;2022-08-21T01:21:49;98836.97;;;16.81;73.67
22743;BME280;11538;48.884;8.696;2022-08-21T01:24:16;98836.75;;;16.87;73.68
22743;BME280;11538;48.884;8.696;2022-08-21T01:26:44;98833.56;;;16.85;73.55
22743;BME280;11538;48.884;8.696;2022-08-21T01:29:32;98836.66;;;16.83;73.76
22743;BME280;11538;48.884;8.696;2022-08-21T01:32:08;98834.25;;;16.81;73.61
22743;BME280;11538;48.884;8.696;2022-08-21T01:34:40;98827.38;;;16.75;74.14
22743;BME280;11538;48.884;8.696;2022-08-21T01:37:08;98825.34;;;16.85;73.99
22743;BME280;11538;48.884;8.696;2022-08-21T01:39:36;98829.69;;;16.86;73.37
22743;BME280;11538;48.884;8.696;2022-08-21T01:42:05;98826.94;;;16.86;73.79
22743;BME280;11538;48.884;8.696;2022-08-21T01:44:34;98826.25;;;16.76;73.83
22743;BME280;11538;48.884;8.696;2022-08-21T01:47:06;98825.53;;;16.55;74.75
22743;BME280;11538;48.884;8.696;2022-08-21T01:49:36;98827.72;;;16.61;74.40
22743;BME280;11538;48.884;8.696;2022-08-21T01:52:05;98826.81;;;16.70;74.14
22743;BME280;11538;48.884;8.696;2022-08-21T01:54:37;98825.31;;;16.60;74.28
22743;BME280;11538;48.884;8.696;2022-08-21T01:57:05;98824.38;;;16.56;74.66
22743;BME280;11538;48.884;8.696;2022-08-21T01:59:33;98816.38;;;16.50;75.01
22743;BME280;11538;48.884;8.696;2022-08-21T02:02:01;98815.91;;;16.48;75.17
22743;BME280;11538;48.884;8.696;2022-08-21T02:04:30;98817.38;;;16.46;75.52
22743;BME280;11538;48.884;8.696;2022-08-21T02:06:57;98815.91;;;16.36;75.95
22743;BME280;11538;48.884;8.696;2022-08-21T02:09:24;98817.50;;;16.37;76.00
22743;BME280;11538;48.884;8.696;2022-08-21T02:11:51;98814.66;;;16.46;75.40
22743;BME280;11538;48.884;8.696;2022-08-21T02:14:18;98816.84;;;16.52;75.10
22743;BME280;11538;48.884;8.696;2022-08-21T02:16:59;98807.47;;;16.41;75.62
22743;BME280;11538;48.884;8.696;2022-08-21T02:19:34;98809.38;;;16.41;75.68
22743;BME280;11538;48.884;8.696;2022-08-21T02:22:09;98805.88;;;16.40;75.80
22743;BME280;11538;48.884;8.696;2022-08-21T02:24:37;98811.88;;;16.33;76.21
22743;BME280;11538;48.884;8.696;2022-08-21T02:27:25;98796.03;;;16.27;76.54
22743;BME280;11538;48.884;8.696;2022-08-21T02:29:56;98796.56;;;16.20;77.09
22743;BME280;11538;48.884;8.696;2022-08-21T02:32:24;98800.09;;;16.20;77.10
22743;BME280;11538;48.884;8.696;2022-08-21T02:34:53;98798.75;;;16.27;77.00
22743;BME280;11538;48.884;8.696;2022-08-21T02:37:20;98801.03;;;16.25;76.88
22743;BME280;11538;48.884;8.696;2022-08-21T02:39:47;98795.56;;;16.25;76.82
22743;BME280;11538;48.884;8.696;2022-08-21T02:42:15;98798.34;;;16.37;76.50
22743;BME280;11538;48.884;8.696;2022-08-21T02:44:42;98801.28;;;16.32;76.25
22743;BME280;11538;48.884;8.696;2022-08-21T02:47:09;98806.97;;;16.27;76.62
22743;BME280;11538;48.884;8.696;2022-08-21T02:49:36;98806.97;;;16.27;76.61
22743;BME280;11538;48.884;8.696;2022-08-21T02:52:03;98805.63;;;16.33;76.10
22743;BME280;11538;48.884;8.696;2022-08-21T02:54:32;98794.66;;;16.33;76.56
22743;BME280;11538;48.884;8.696;2022-08-21T02:56:59;98796.81;;;16.27;76.41
22743;BME280;11538;48.884;8.696;2022-08-21T02:59:26;98798.97;;;16.21;76.34
22743;BME280;11538;48.884;8.696;2022-08-21T03:01:53;98800.63;;;16.14;76.46
22743;BME280;11538;48.884;8.696;2022-08-21T03:04:20;98802.25;;;16.15;76.57
22743;BME280;11538;48.884;8.696;2022-08-21T03:06:47;98800.75;;;16.05;77.15
22743;BME280;11538;48.884;8.696;2022-08-21T03:09:14;98809.63;;;16.02;77.49
22743;BME280;11538;48.884;8.696;2022-08-21T03:11:41;98799.25;;;16.07;77.54
22743;BME280;11538;48.884;8.696;2022-08-21T03:14:08;98807.13;;;16.09;77.10
22743;BME280;11538;48.884;8.696;2022-08-21T03:16:35;98811.06;;;15.99;77.54
22743;BME280;11538;48.884;8.696;2022-08-21T03:19:03;98805.50;;;15.96;78.11
22743;BME280;11538;48.884;8.696;2022-08-21T03:21:30;98802.59;;;16.13;76.93
22743;BME280;11538;48.884;8.696;2022-08-21T03:23:57;98793.47;;;16.09;76.87
22743;BME280;11538;48.884;8.696;2022-08-21T03:26:24;98800.94;;;16.00;77.40
22743;BME280;11538;48.884;8.696;2022-08-21T03:28:54;98805.69;;;15.90;77.80
22743;BME280;11538;48.884;8.696;2022-08-21T03:31:25;98805.19;;;15.88;77.90
22743;BME280;11538;48.884;8.696;2022-08-21T03:33:56;98802.06;;;15.77;78.66
22743;BME280;11538;48.884;8.696;2022-08-21T03:36:23;98808.03;;;15.71;78.94
22743;BME280;11538;48.884;8.696;2022-08-21T03:38:50;98809.53;;;15.68;79.38
22743;BME280;11538;48.884;8.696;2022-08-21T03:41:17;98812.25;;;15.68;79.40
22743;BME280;11538;48.884;8.696;2022-08-21T03:43:44;98800.03;;;15.65;79.79
22743;BME280;11538;48.884;8.696;2022-08-21T03:46:11;98805.78;;;15.73;79.50
22743;BME280;11538;48.884;8.696;2022-08-21T03:48:39;98810.25;;;15.77;79.00
22743;BME280;11538;48.884;8.696;2022-08-21T03:51:06;98807.78;;;15.85;78.81
22743;BME280;11538;48.884;8.696;2022-08-21T03:53:34;98815.00;;;15.89;78.36
22743;BME280;11538;48.884;8.696;2022-08-21T03:56:01;98810.84;;;15.83;78.68
22743;BME280;11538;48.884;8.696;2022-08-21T03:58:28;98812.44;;;15.84;78.81
22743;BME280;11538;48.884;8.696;2022-08-21T04:01:00;98815.66;;;15.86;78.53
22743;BME280;11538;48.884;8.696;2022-08-21T04:03:28;98815.19;;;15.84;78.19
22743;BME280;11538;48.884;8.696;2022-08-21T04:05:55;98818.13;;;15.79;78.28
22743;BME280;11538;48.884;8.696;2022-08-21T04:08:22;98822.34;;;15.76;78.36
22743;BME280;11538;48.884;8.696;2022-08-21T04:10:53;98822.59;;;15.62;79.01
22743;BME280;11538;48.884;8.696;2022-08-21T04:13:22;98833.72;;;15.57;79.49
22743;BME280;11538;48.884;8.696;2022-08-21T04:15:49;98835.84;;;15.52;79.61
22743;BME280;11538;48.884;8.696;2022-08-21T04:18:16;98840.97;;;15.53;79.56
22743;BME280;11538;48.884;8.696;2022-08-21T04:20:46;98841.38;;;15.43;80.07
22743;BME280;11538;48.884;8.696;2022-08-21T04:23:20;98840.84;;;15.49;79.79
22743;BME280;11538;48.884;8.696;2022-08-21T04:25:54;98847.38;;;15.57;79.64
22743;BME280;11538;48.884;8.696;2022-08-21T04:28:25;98840.97;;;15.53;79.45
22743;BME280;11538;48.884;8.696;2022-08-21T04:30:56;98843.31;;;15.42;80.00
22743;BME280;11538;48.884;8.696;2022-08-21T04:33:23;98849.09;;;15.41;80.17
22743;BME280;11538;48.884;8.696;2022-08-21T04:35:50;98838.16;;;15.41;80.10
22743;BME280;11538;48.884;8.696;2022-08-21T04:38:18;98847.00;;;15.46;79.84
22743;BME280;11538;48.884;8.696;2022-08-21T04:40:46;98853.13;;;15.43;80.06
22743;BME280;11538;48.884;8.696;2022-08-21T04:43:15;98850.03;;;15.45;80.18
22743;BME280;11538;48.884;8.696;2022-08-21T04:45:45;98849.59;;;15.64;79.43
22743;BME280;11538;48.884;8.696;2022-08-21T04:48:17;98855.53;;;15.66;78.96
22743;BME280;11538;48.884;8.696;2022-08-21T04:53:59;98858.41;;;15.70;78.58
22743;BME280;11538;48.884;8.696;2022-08-21T04:56:39;98860.94;;;15.54;79.40
22743;BME280;11538;48.884;8.696;2022-08-21T04:59:17;98865.13;;;15.51;79.57
22743;BME280;11538;48.884;8.696;2022-08-21T05:01:45;98869.63;;;15.47;79.69
22743;BME280;11538;48.884;8.696;2022-08-21T05:04:16;98870.47;;;15.47;79.65
22743;BME280;11538;48.884;8.696;2022-08-21T05:06:46;98871.59;;;15.46;79.82
22743;BME280;11538;48.884;8.696;2022-08-21T05:09:20;98872.84;;;15.49;79.78
22743;BME280;11538;48.884;8.696;2022-08-21T05:11:48;98868.66;;;15.52;79.56
22743;BME280;11538;48.884;8.696;2022-08-21T05:14:15;98874.50;;;15.41;80.01
22743;BME280;11538;48.884;8.696;2022-08-21T05:16:42;98862.34;;;15.30;80.77
22743;BME280;11538;48.884;8.696;2022-08-21T05:19:11;98866.53;;;15.27;80.95
22743;BME280;11538;48.884;8.696;2022-08-21T05:21:42;98872.47;;;15.29;81.24
22743;BME280;11538;48.884;8.696;2022-08-21T05:24:10;98875.63;;;15.40;80.69
22743;BME280;11538;48.884;8.696;2022-08-21T05:26:38;98879.88;;;15.59;79.66
22743;BME280;11538;48.884;8.696;2022-08-21T05:29:14;98886.59;;;15.61;79.18
22743;BME280;11538;48.884;8.696;2022-08-21T05:31:43;98888.81;;;15.68;79.17
22743;BME280;11538;48.884;8.696;2022-08-21T05:34:09;98881.84;;;15.79;78.53
22743;BME280;11538;48.884;8.696;2022-08-21T05:36:36;98872.03;;;15.78;78.29
22743;BME280;11538;48.884;8.696;2022-08-21T05:39:04;98877.81;;;15.77;78.39
22743;BME280;11538;48.884;8.696;2022-08-21T05:41:31;98873.47;;;15.76;78.42
22743;BME280;11538;48.884;8.696;2022-08-21T05:44:01;98868.75;;;15.85;77.92
22743;BME280;11538;48.884;8.696;2022-08-21T05:46:28;98881.28;;;15.86;78.13
22743;BME280;11538;48.884;8.696;2022-08-21T05:48:56;98871.97;;;15.87;78.35
22743;BME280;11538;48.884;8.696;2022-08-21T05:51:23;98873.56;;;15.88;78.45
22743;BME280;11538;48.884;8.696;2022-08-21T05:53:50;98872.28;;;15.86;78.29
22743;BME280;11538;48.884;8.696;2022-08-21T05:56:17;98874.88;;;15.91;78.53
22743;BME280;11538;48.884;8.696;2022-08-21T05:58:44;98874.19;;;15.94;78.23
22743;BME280;11538;48.884;8.696;2022-08-21T06:01:11;98880.00;;;15.92;78.82
22743;BME280;11538;48.884;8.696;2022-08-21T06:03:41;98872.66;;;16.05;77.98
22743;BME280;11538;48.884;8.696;2022-08-21T06:06:09;98874.47;;;16.22;78.25
22743;BME280;11538;48.884;8.696;2022-08-21T06:08:37;98870.72;;;16.61;75.73
22743;BME280;11538;48.884;8.696;2022-08-21T06:11:05;98868.00;;;16.73;74.48
22743;BME280;11538;48.884;8.696;2022-08-21T06:13:33;98871.09;;;16.72;74.42
22743;BME280;11538;48.884;8.696;2022-08-21T06:16:06;98871.91;;;16.85;73.70
22743;BME280;11538;48.884;8.696;2022-08-21T06:18:35;98877.84;;;16.87;73.77
22743;BME280;11538;48.884;8.696;2022-08-21T06:21:04;98871.69;;;16.90;73.24
22743;BME280;11538;48.884;8.696;2022-08-21T06:23:32;98860.31;;;17.00;72.68
22743;BME280;11538;48.884;8.696;2022-08-21T06:26:01;98868.44;;;17.09;72.29
22743;BME280;11538;48.884;8.696;2022-08-21T06:28:28;98862.16;;;17.21;72.02
22743;BME280;11538;48.884;8.696;2022-08-21T06:30:55;98864.47;;;17.31;71.55
22743;BME280;11538;48.884;8.696;2022-08-21T06:33:23;98863.31;;;17.45;71.38
22743;BME280;11538;48.884;8.696;2022-08-21T06:35:54;98859.28;;;17.54;70.71
22743;BME280;11538;48.884;8.696;2022-08-21T06:38:21;98865.00;;;17.62;70.55
22743;BME280;11538;48.884;8.696;2022-08-21T06:40:48;98862.16;;;17.58;70.54
22743;BME280;11538;48.884;8.696;2022-08-21T06:43:16;98855.06;;;17.57;71.08
22743;BME280;11538;48.884;8.696;2022-08-21T06:45:44;98865.56;;;17.67;71.13
22743;BME280;11538;48.884;8.696;2022-08-21T06:48:11;98862.91;;;17.71;70.89
22743;BME280;11538;48.884;8.696;2022-08-21T06:50:45;98866.22;;;17.77;70.86
22743;BME280;11538;48.884;8.696;2022-08-21T06:53:14;98864.72;;;17.92;70.20
22743;BME280;11538;48.884;8.696;2022-08-21T06:55:42;98867.00;;;18.02;70.05
22743;BME280;11538;48.884;8.696;2022-08-21T06:58:11;98866.84;;;18.11;69.50
22743;BME280;11538;48.884;8.696;2022-08-21T07:00:42;98860.78;;;18.18;69.27
22743;BME280;11538;48.884;8.696;2022-08-21T07:03:41;98855.94;;;18.27;69.32
22743;BME280;11538;48.884;8.696;2022-08-21T07:06:11;98855.06;;;18.39;68.86
22743;BME280;11538;48.884;8.696;2022-08-21T07:08:38;98855.63;;;18.45;68.71
22743;BME280;11538;48.884;8.696;2022-08-21T07:11:22;98852.47;;;18.59;67.96
22743;BME280;11538;48.884;8.696;2022-08-21T07:13:51;98857.09;;;18.70;67.49
22743;BME280;11538;48.884;8.696;2022-08-21T07:16:21;98853.03;;;18.80;66.46
22743;BME280;11538;48.884;8.696;2022-08-21T07:18:48;98856.03;;;18.91;66.38
22743;BME280;11538;48.884;8.696;2022-08-21T07:21:16;98856.69;;;19.00;65.70
22743;BME280;11538;48.884;8.696;2022-08-21T07:23:51;98847.56;;;19.12;65.70
22743;BME280;11538;48.884;8.696;2022-08-21T07:26:23;98847.47;;;19.25;65.16
22743;BME280;11538;48.884;8.696;2022-08-21T07:28:51;98848.16;;;19.38;64.04
22743;BME280;11538;48.884;8.696;2022-08-21T07:31:22;98848.50;;;19.52;63.20
22743;BME280;11538;48.884;8.696;2022-08-21T07:33:53;98850.41;;;19.68;62.58
22743;BME280;11538;48.884;8.696;2022-08-21T07:36:20;98850.78;;;19.86;62.23
22743;BME280;11538;48.884;8.696;2022-08-21T07:38:48;98851.13;;;20.00;61.74
22743;BME280;11538;48.884;8.696;2022-08-21T07:41:26;98842.06;;;20.20;60.87
22743;BME280;11538;48.884;8.696;2022-08-21T07:43:59;98842.47;;;20.41;60.59
22743;BME280;11538;48.884;8.696;2022-08-21T07:46:26;98838.09;;;20.60;59.39
22743;BME280;11538;48.884;8.696;2022-08-21T07:48:53;98836.81;;;20.77;58.68
22743;BME280;11538;48.884;8.696;2022-08-21T07:51:26;98839.59;;;21.00;58.59
22743;BME280;11538;48.884;8.696;2022-08-21T07:53:57;98840.31;;;21.21;57.03
22743;BME280;11538;48.884;8.696;2022-08-21T07:56:25;98842.56;;;21.38;55.75
22743;BME280;11538;48.884;8.696;2022-08-21T07:58:53;98846.03;;;21.62;54.10
22743;BME280;11538;48.884;8.696;2022-08-21T08:01:20;98845.94;;;21.82;53.86
22743;BME280;11538;48.884;8.696;2022-08-21T08:03:49;98841.09;;;22.02;53.23
22743;BME280;11538;48.884;8.696;2022-08-21T08:06:16;98844.38;;;22.15;52.05
22743;BME280;11538;48.884;8.696;2022-08-21T08:08:45;98838.19;;;22.25;51.39
22743;BME280;11538;48.884;8.696;2022-08-21T08:11:13;98842.38;;;22.46;52.22
22743;BME280;11538;48.884;8.696;2022-08-21T08:13:50;98841.78;;;22.63;51.30
22743;BME280;11538;48.884;8.696;2022-08-21T08:16:19;98837.63;;;22.84;50.71
22743;BME280;11538;48.884;8.696;2022-08-21T08:18:46;98832.63;;;23.01;50.68
22743;BME280;11538;48.884;8.696;2022-08-21T08:21:15;98823.66;;;23.18;49.99
22743;BME280;11538;48.884;8.696;2022-08-21T08:23:42;98828.91;;;23.31;49.43
22743;BME280;11538;48.884;8.696;2022-08-21T08:26:13;98823.50;;;23.52;49.88
22743;BME280;11538;48.884;8.696;2022-08-21T08:28:42;98819.69;;;23.72;48.62
22743;BME280;11538;48.884;8.696;2022-08-21T08:31:09;98820.56;;;23.98;48.48
22743;BME280;11538;48.884;8.696;2022-08-21T08:33:37;98816.69;;;24.02;46.85
22743;BME280;11538;48.884;8.696;2022-08-21T08:36:05;98813.53;;;24.11;47.32
22743;BME280;11538;48.884;8.696;2022-08-21T08:38:33;98806.06;;;24.30;47.83
22743;BME280;11538;48.884;8.696;2022-08-21T08:41:18;98817.56;;;24.43;47.07
22743;BME280;11538;48.884;8.696;2022-08-21T08:44:00;98806.53;;;24.72;48.50
22743;BME280;11538;48.884;8.696;2022-08-21T08:46:48;98802.97;;;24.96;46.98
22743;BME280;11538;48.884;8.696;2022-08-21T08:49:35;98806.94;;;25.21;47.94
22743;BME280;11538;48.884;8.696;2022-08-21T08:52:27;98813.66;;;25.09;46.94
22743;BME280;11538;48.884;8.696;2022-08-21T08:55:02;98802.56;;;25.27;45.08
22743;BME280;11538;48.884;8.696;2022-08-21T08:57:31;98795.81;;;25.46;45.60
22743;BME280;11538;48.884;8.696;2022-08-21T09:00:08;98801.72;;;25.63;44.95
22743;BME280;11538;48.884;8.696;2022-08-21T09:02:43;98792.56;;;25.73;45.04
22743;BME280;11538;48.884;8.696;2022-08-21T09:05:25;98791.25;;;25.96;43.55
22743;BME280;11538;48.884;8.696;2022-08-21T09:11:16;98792.38;;;26.20;43.21
22743;BME280;11538;48.884;8.696;2022-08-21T09:20:19;98781.44;;;26.48;42.10
22743;BME280;11538;48.884;8.696;2022-08-21T09:23:11;98778.59;;;26.62;40.32
22743;BME280;11538;48.884;8.696;2022-08-21T09:26:08;98770.25;;;26.59;40.40
22743;BME280;11538;48.884;8.696;2022-08-21T09:28:39;98767.41;;;26.69;42.31
22743;BME280;11538;48.884;8.696;2022-08-21T09:31:25;98770.78;;;26.95;42.07
22743;BME280;11538;48.884;8.696;2022-08-21T09:34:06;98765.31;;;27.26;43.51
22743;BME280;11538;48.884;8.696;2022-08-21T09:36:49;98768.84;;;27.30;40.07
22743;BME280;11538;48.884;8.696;2022-08-21T09:39:29;98763.91;;;27.49;42.50
22743;BME280;11538;48.884;8.696;2022-08-21T09:42:02;98771.97;;;27.36;40.00
22743;BME280;11538;48.884;8.696;2022-08-21T09:44:41;98769.00;;;27.54;40.08
22743;BME280;11538;48.884;8.696;2022-08-21T09:47:11;98762.06;;;27.70;44.23
22743;BME280;11538;48.884;8.696;2022-08-21T09:49:43;98761.38;;;27.93;42.59
22743;BME280;11538;48.884;8.696;2022-08-21T09:52:23;98761.28;;;28.00;38.63
22743;BME280;11538;48.884;8.696;2022-08-21T09:54:55;98759.47;;;27.86;38.16
22743;BME280;11538;48.884;8.696;2022-08-21T09:57:31;98762.09;;;27.97;38.11
22743;BME280;11538;48.884;8.696;2022-08-21T10:00:27;98761.91;;;28.15;38.14
22743;BME280;11538;48.884;8.696;2022-08-21T10:03:17;98768.78;;;28.35;38.91
22743;BME280;11538;48.884;8.696;2022-08-21T10:06:09;98763.44;;;28.71;37.99
22743;BME280;11538;48.884;8.696;2022-08-21T10:08:40;98754.47;;;28.84;38.16
22743;BME280;11538;48.884;8.696;2022-08-21T10:11:16;98751.06;;;28.96;38.40
22743;BME280;11538;48.884;8.696;2022-08-21T10:17:04;98744.09;;;29.08;34.01
22743;BME280;11538;48.884;8.696;2022-08-21T10:23:01;98736.16;;;29.27;36.36
22743;BME280;11538;48.884;8.696;2022-08-21T10:25:40;98732.44;;;29.33;34.27
22743;BME280;11538;48.884;8.696;2022-08-21T10:28:51;98731.22;;;29.35;32.62
22743;BME280;11538;48.884;8.696;2022-08-21T10:31:53;98721.91;;;29.21;34.64
22743;BME280;11538;48.884;8.696;2022-08-21T10:42:52;98726.59;;;30.05;34.50
22743;BME280;11538;48.884;8.696;2022-08-21T10:45:42;98721.59;;;29.96;34.61
22743;BME280;11538;48.884;8.696;2022-08-21T10:48:38;98717.34;;;30.41;31.82
22743;BME280;11538;48.884;8.696;2022-08-21T10:51:40;98721.38;;;30.40;32.38
22743;BME280;11538;48.884;8.696;2022-08-21T10:54:40;98713.53;;;30.68;32.86
22743;BME280;11538;48.884;8.696;2022-08-21T10:57:29;98712.09;;;30.93;34.41
22743;BME280;11538;48.884;8.696;2022-08-21T11:00:14;98711.09;;;31.00;33.31
22743;BME280;11538;48.884;8.696;2022-08-21T11:03:08;98708.34;;;31.13;31.72
22743;BME280;11538;48.884;8.696;2022-08-21T11:05:52;98705.03;;;31.60;34.48
22743;BME280;11538;48.884;8.696;2022-08-21T11:08:31;98701.50;;;31.86;31.81
22743;BME280;11538;48.884;8.696;2022-08-21T11:11:25;98707.03;;;32.15;30.99
22743;BME280;11538;48.884;8.696;2022-08-21T11:17:11;98699.50;;;32.12;28.81
22743;BME280;11538;48.884;8.696;2022-08-21T11:22:58;98696.72;;;32.73;26.63
22743;BME280;11538;48.884;8.696;2022-08-21T11:25:37;98689.59;;;32.81;26.97
22743;BME280;11538;48.884;8.696;2022-08-21T11:28:22;98690.56;;;32.65;26.12
22743;BME280;11538;48.884;8.696;2022-08-21T11:31:09;98690.38;;;32.95;27.66
22743;BME280;11538;48.884;8.696;2022-08-21T11:40:09;98680.81;;;34.32;24.60
22743;BME280;11538;48.884;8.696;2022-08-21T11:45:38;98681.38;;;34.86;23.52
22743;BME280;11538;48.884;8.696;2022-08-21T11:51:36;98672.75;;;34.52;23.41
22743;BME280;11538;48.884;8.696;2022-08-21T11:54:39;98664.00;;;34.50;24.15
22743;BME280;11538;48.884;8.696;2022-08-21T12:00:07;98669.31;;;35.23;23.36
22743;BME280;11538;48.884;8.696;2022-08-21T12:02:45;98666.03;;;35.86;22.73
22743;BME280;11538;48.884;8.696;2022-08-21T12:05:32;98673.16;;;36.06;22.20
22743;BME280;11538;48.884;8.696;2022-08-21T12:11:09;98662.84;;;35.93;21.77
22743;BME280;11538;48.884;8.696;2022-08-21T12:13:56;98656.59;;;36.23;22.08
22743;BME280;11538;48.884;8.696;2022-08-21T12:16:33;98653.78;;;36.71;21.14
22743;BME280;11538;48.884;8.696;2022-08-21T12:21:59;98648.00;;;37.20;21.20
22743;BME280;11538;48.884;8.696;2022-08-21T12:24:49;98647.13;;;37.29;20.56
22743;BME280;11538;48.884;8.696;2022-08-21T12:27:44;98647.13;;;37.14;20.60
22743;BME280;11538;48.884;8.696;2022-08-21T12:33:02;98646.19;;;36.93;20.67
22743;BME280;11538;48.884;8.696;2022-08-21T12:35:42;98644.63;;;36.92;20.78
22743;BME280;11538;48.884;8.696;2022-08-21T12:38:39;98641.81;;;36.92;20.48
22743;BME280;11538;48.884;8.696;2022-08-21T12:41:18;98635.25;;;36.85;20.88
22743;BME280;11538;48.884;8.696;2022-08-21T12:44:04;98636.31;;;36.73;20.81
22743;BME280;11538;48.884;8.696;2022-08-21T12:46:46;98630.16;;;36.59;20.71
22743;BME280;11538;48.884;8.696;2022-08-21T12:49:30;98628.13;;;36.36;20.87
22743;BME280;11538;48.884;8.696;2022-08-21T12:52:24;98631.06;;;36.17;21.24
22743;BME280;11538;48.884;8.696;2022-08-21T12:54:51;98627.09;;;36.48;20.61
22743;BME280;11538;48.884;8.696;2022-08-21T12:57:26;98634.56;;;35.07;22.11
22743;BME280;11538;48.884;8.696;2022-08-21T13:00:01;98624.06;;;35.17;22.53
22743;BME280;11538;48.884;8.696;2022-08-21T13:02:33;98629.44;;;35.92;21.34
22743;BME280;11538;48.884;8.696;2022-08-21T13:05:06;98629.88;;;34.76;22.09
22743;BME280;11538;48.884;8.696;2022-08-21T13:07:42;98626.69;;;34.37;22.75
22743;BME280;11538;48.884;8.696;2022-08-21T13:10:27;98622.41;;;33.09;24.19
22743;BME280;11538;48.884;8.696;2022-08-21T13:13:01;98620.78;;;32.99;24.43
22743;BME280;11538;48.884;8.696;2022-08-21T13:15:41;98620.72;;;34.07;23.51
22743;BME280;11538;48.884;8.696;2022-08-21T13:18:29;98619.34;;;33.71;23.58
22743;BME280;11538;48.884;8.696;2022-08-21T13:21:13;98624.09;;;33.92;23.90
22743;BME280;11538;48.884;8.696;2022-08-21T13:23:43;98616.84;;;35.25;22.40
22743;BME280;11538;48.884;8.696;2022-08-21T13:26:21;98622.41;;;36.21;21.44
22743;BME280;11538;48.884;8.696;2022-08-21T13:28:49;98621.38;;;35.23;22.44
22743;BME280;11538;48.884;8.696;2022-08-21T13:31:24;98619.66;;;33.73;24.24
22743;BME280;11538;48.884;8.696;2022-08-21T13:33:55;98613.38;;;32.70;24.78
22743;BME280;11538;48.884;8.696;2022-08-21T13:36:34;98615.56;;;32.05;26.28
22743;BME280;11538;48.884;8.696;2022-08-21T13:39:08;98611.50;;;31.54;26.44
22743;BME280;11538;48.884;8.696;2022-08-21T13:41:39;98600.63;;;31.17;26.93
22743;BME280;11538;48.884;8.696;2022-08-21T13:44:19;98613.34;;;31.05;27.36
22743;BME280;11538;48.884;8.696;2022-08-21T13:46:48;98607.75;;;32.70;25.64
22743;BME280;11538;48.884;8.696;2022-08-21T13:49:23;98606.06;;;34.31;23.25
22743;BME280;11538;48.884;8.696;2022-08-21T13:51:53;98608.88;;;34.40;23.70
22743;BME280;11538;48.884;8.696;2022-08-21T13:54:37;98610.09;;;34.20;23.38
22743;BME280;11538;48.884;8.696;2022-08-21T13:57:15;98601.16;;;33.94;23.54
22743;BME280;11538;48.884;8.696;2022-08-21T13:59:42;98600.91;;;34.38;23.06
22743;BME280;11538;48.884;8.696;2022-08-21T14:02:23;98598.28;;;33.44;23.84
22743;BME280;11538;48.884;8.696;2022-08-21T14:04:57;98598.03;;;32.27;25.06
22743;BME280;11538;48.884;8.696;2022-08-21T14:07:40;98597.94;;;31.40;26.34
22743;BME280;11538;48.884;8.696;2022-08-21T14:10:19;98593.25;;;30.94;27.18
22743;BME280;11538;48.884;8.696;2022-08-21T14:12:55;98582.69;;;30.56;27.74
22743;BME280;11538;48.884;8.696;2022-08-21T14:15:29;98594.50;;;30.63;27.71
22743;BME280;11538;48.884;8.696;2022-08-21T14:18:18;98582.50;;;31.61;25.94
22743;BME280;11538;48.884;8.696;2022-08-21T14:20:46;98588.88;;;32.00;25.88
22743;BME280;11538;48.884;8.696;2022-08-21T14:23:26;98581.53;;;32.16;25.48
22743;BME280;11538;48.884;8.696;2022-08-21T14:26:00;98577.53;;;33.19;24.43
22743;BME280;11538;48.884;8.696;2022-08-21T14:28:48;98574.06;;;33.87;23.65
22743;BME280;11538;48.884;8.696;2022-08-21T14:31:21;98571.50;;;34.21;23.35